Time;durP1;ratioP1;P1;durP2;ratioP2;P2;SDS_P1;SDS_P2;PMS_P1;PMS_P2;Temp;Humidity;BMP_temperature;BMP_pressure;BME280_temperature;BME280_humidity;BME280_pressure;Samples;Min_cycle;Max_cycle;Signal;HPM_P1;HPM_P2
2023/10/08 07:23:39;;;;;;;10.50;7.18;;;;;;;-145.79;89.07;78197.66;5290877;28;20394;-75
2023/10/08 07:26:10;;;;;;;13.90;7.68;;;;;;;-145.79;89.45;78206.13;5289104;28;20099;-75
2023/10/08 07:28:43;;;;;;;9.20;8.18;;;;;;;-145.79;89.09;78201.91;5288526;28;20037;-75
2023/10/08 07:31:23;;;;;;;13.38;8.45;;;;;;;-145.79;89.35;78204.00;5288806;28;20029;-75
2023/10/08 07:33:56;;;;;;;11.55;8.43;;;;;;;-145.79;90.03;78193.41;5292530;28;20107;-75
2023/10/08 07:36:29;;;;;;;17.15;9.23;;;;;;;-145.79;89.79;78191.28;5288636;28;20075;-75
2023/10/08 07:39:07;;;;;;;10.85;7.82;;;;;;;-145.79;89.34;78174.34;5287339;28;20357;-73
2023/10/08 07:41:38;;;;;;;10.27;7.80;;;;;;;-145.79;89.29;78165.84;5286857;28;20021;-74
2023/10/08 07:44:10;;;;;;;9.48;8.27;;;;;;;-145.79;88.70;78157.38;5288142;28;20020;-74
2023/10/08 07:46:42;;;;;;;10.57;7.00;;;;;;;-145.79;88.66;78144.66;5291336;28;20501;-75
2023/10/08 07:49:14;;;;;;;16.17;9.52;;;;;;;-145.79;88.55;78131.94;5287837;28;20028;-74
2023/10/08 07:51:51;;;;;;;16.60;9.98;;;;;;;-145.79;88.68;78123.44;5283484;28;20035;-75
2023/10/08 07:54:29;;;;;;;14.18;7.85;;;;;;;-145.79;88.70;78110.72;5290703;28;20028;-75
2023/10/08 07:57:10;;;;;;;11.85;8.20;;;;;;;-145.79;88.34;78110.72;5285205;28;20060;-75
2023/10/08 07:59:51;;;;;;;13.23;8.57;;;;;;;-145.79;88.53;78098.00;5287546;28;20416;-75
2023/10/08 08:02:23;;;;;;;13.85;7.70;;;;;;;-145.79;89.02;78093.78;5291637;28;20032;-75
2023/10/08 08:04:54;;;;;;;14.45;8.82;;;;;;;-145.79;89.34;78100.13;5286867;28;20064;-75
2023/10/08 08:07:26;;;;;;;12.23;8.52;;;;;;;-145.79;89.45;78085.28;5272415;28;20101;-75
2023/10/08 08:10:00;;;;;;;15.32;9.13;;;;;;;-145.79;89.58;78093.78;5283814;28;20028;-73
2023/10/08 08:12:32;;;;;;;14.95;10.15;;;;;;;-145.79;90.13;78110.72;5291546;28;20055;-75
2023/10/08 08:15:14;;;;;;;15.10;9.20;;;;;;;-145.79;90.84;78110.72;5286458;28;20060;-75
2023/10/08 08:17:48;;;;;;;19.30;8.80;;;;;;;-145.79;90.85;78110.72;5287782;28;20475;-74
2023/10/08 08:20:21;;;;;;;15.73;9.18;;;;;;;-145.79;91.07;78093.78;5291001;28;20058;-75
2023/10/08 08:22:54;;;;;;;10.10;8.63;;;;;;;-145.79;90.83;78089.53;5282048;28;20110;-76
2023/10/08 08:25:34;;;;;;;10.73;8.32;;;;;;;-145.79;91.21;78091.66;5291309;28;20028;-74
2023/10/08 08:28:07;;;;;;;16.17;9.52;;;;;;;-145.79;91.21;78085.28;5288492;28;20094;-74
2023/10/08 08:30:39;;;;;;;13.55;8.93;;;;;;;-145.79;91.61;78087.41;5282536;28;20035;-75
2023/10/08 08:33:10;;;;;;;19.27;10.85;;;;;;;-145.79;91.78;78087.41;5282813;28;20055;-74
2023/10/08 08:35:42;;;;;;;13.55;10.23;;;;;;;-145.79;92.01;78098.00;5272742;28;20032;-75
2023/10/08 08:38:13;;;;;;;13.82;9.43;;;;;;;-145.79;92.49;78085.28;5274721;28;20036;-75
2023/10/08 08:40:45;;;;;;;14.25;10.30;;;;;;;-145.79;92.72;78093.78;5274613;28;20025;-75
2023/10/08 08:43:16;;;;;;;16.30;9.80;;;;;;;-145.79;93.11;78098.00;5274059;28;20025;-75
2023/10/08 08:45:49;;;;;;;13.95;10.90;;;;;;;-145.79;93.10;78089.53;5276800;28;20481;-76
2023/10/08 08:48:21;;;;;;;12.07;10.10;;;;;;;-145.79;92.82;78095.91;5265457;28;20045;-74
2023/10/08 08:50:54;;;;;;;16.65;10.93;;;;;;;-145.79;92.76;78083.19;5276385;28;20032;-75
2023/10/08 08:53:26;;;;;;;15.23;10.52;;;;;;;-145.79;92.79;78085.28;5275776;28;20033;-75
2023/10/08 08:56:00;;;;;;;25.73;13.07;;;;;;;-145.79;92.48;78089.53;5270326;28;20017;-74
2023/10/08 08:58:33;;;;;;;17.23;12.70;;;;;;;-145.79;92.47;78083.19;5270641;28;20036;-74
2023/10/08 09:01:13;;;;;;;16.63;11.75;;;;;;;-145.79;92.31;78068.34;5276804;28;20032;-72
2023/10/08 09:03:47;;;;;;;15.60;10.10;;;;;;;-145.79;91.76;78072.56;5273688;28;20033;-73
2023/10/08 09:06:19;;;;;;;13.77;9.73;;;;;;;-145.79;91.91;78055.63;5269449;28;20069;-74
2023/10/08 09:08:50;;;;;;;17.92;12.00;;;;;;;-145.79;91.55;78053.50;5276442;28;20407;-74
2023/10/08 09:11:22;;;;;;;18.98;11.43;;;;;;;-145.79;91.61;78055.63;5274027;28;20024;-75
2023/10/08 09:13:53;;;;;;;20.10;11.82;;;;;;;-145.79;91.61;78042.91;5267164;28;20025;-75
2023/10/08 09:16:24;;;;;;;18.88;13.57;;;;;;;-145.79;91.76;78047.13;5276899;28;20032;-73
2023/10/08 09:18:56;;;;;;;17.73;12.80;;;;;;;-145.79;91.90;78051.38;5274029;28;20044;-74
2023/10/08 09:21:27;;;;;;;22.25;12.70;;;;;;;-145.79;91.80;78030.19;5271920;28;20106;-74
2023/10/08 09:23:59;;;;;;;21.58;12.65;;;;;;;-145.79;91.37;78032.28;5272517;28;20020;-74
2023/10/08 09:26:30;;;;;;;18.23;12.95;;;;;;;-145.79;91.79;78017.44;5276694;28;20107;-75
2023/10/08 09:29:04;;;;;;;20.55;13.18;;;;;;;-145.79;91.91;78013.22;5275315;28;20546;-75
2023/10/08 09:31:36;;;;;;;22.05;13.05;;;;;;;-145.79;91.86;78002.63;5269854;28;20029;-75
2023/10/08 09:34:07;;;;;;;23.52;15.23;;;;;;;-145.79;91.90;77983.53;5273188;28;20028;-75
2023/10/08 09:36:42;;;;;;;21.60;13.13;;;;;;;-145.79;91.55;77975.06;5276399;28;20028;-74
2023/10/08 09:39:23;;;;;;;21.40;13.70;;;;;;;-145.79;90.98;77977.19;5270260;28;20029;-73
2023/10/08 09:41:55;;;;;;;19.38;13.38;;;;;;;-145.79;91.42;77964.47;5276026;28;20426;-74
2023/10/08 09:44:27;;;;;;;17.23;12.77;;;;;;;-145.79;90.84;77960.22;5273283;28;20040;-74
2023/10/08 09:47:06;;;;;;;32.47;29.02;;;;;;;-145.79;90.92;77958.09;5268394;28;20488;-75
2023/10/08 09:49:56;;;;;;;18.08;14.02;;;;;;;-145.79;90.78;77947.50;5274063;28;20475;-74
2023/10/08 09:52:36;;;;;;;24.98;13.60;;;;;;;-145.79;90.85;77939.00;5273530;28;20392;-74
2023/10/08 09:55:11;;;;;;;19.77;13.80;;;;;;;-145.79;90.81;77941.13;5271670;28;20025;-75
2023/10/08 09:57:43;;;;;;;32.33;15.70;;;;;;;-145.79;90.94;77928.41;5266259;28;20542;-74
2023/10/08 10:00:18;;;;;;;27.42;15.18;;;;;;;-145.79;90.68;77924.19;5270779;28;20064;-74
2023/10/08 10:02:49;;;;;;;17.15;13.82;;;;;;;-145.79;90.45;77911.47;5274444;28;20024;-74
2023/10/08 10:05:21;;;;;;;24.45;13.77;;;;;;;-145.79;90.07;77909.34;5260511;28;20114;-75
2023/10/08 10:07:55;;;;;;;22.85;14.13;;;;;;;-145.79;90.08;77881.78;5272124;28;20033;-74
2023/10/08 10:10:34;;;;;;;25.20;15.00;;;;;;;-145.79;89.97;77866.94;5275723;28;20035;-74
2023/10/08 10:13:10;;;;;;;25.60;14.75;;;;;;;-145.79;89.43;77875.41;5272643;28;20391;-74
2023/10/08 10:15:43;;;;;;;16.30;13.20;;;;;;;-145.79;88.89;77856.34;5275041;28;20028;-74
2023/10/08 10:18:18;;;;;;;24.58;16.80;;;;;;;-145.79;88.95;77858.47;5270981;28;20025;-75
2023/10/08 10:20:59;;;;;;;;;;;;;;;-145.79;88.86;77833.03;5270767;28;20090;-74
2023/10/08 10:23:44;;;;;;;18.40;15.93;;;;;;;-145.79;89.03;77839.38;5270614;28;19917;-75
2023/10/08 10:26:30;;;;;;;17.98;15.02;;;;;;;-145.79;88.65;77837.25;5272066;28;20017;-73
2023/10/08 10:29:08;;;;;;;20.27;15.00;;;;;;;-145.79;88.15;77835.13;5271242;28;20111;-74
2023/10/08 10:31:44;;;;;;;23.40;16.45;;;;;;;-145.79;87.99;77841.50;5270958;28;20102;-75
2023/10/08 10:34:18;;;;;;;20.58;15.77;;;;;;;-145.79;88.20;77837.25;5272633;28;20670;-75
2023/10/08 10:36:55;;;;;;;20.95;16.63;;;;;;;-145.79;88.36;77826.66;5275593;28;20490;-75
2023/10/08 10:39:27;;;;;;;21.33;16.55;;;;;;;-145.79;88.29;77828.78;5273551;28;20436;-74
2023/10/08 10:42:06;;;;;;;21.80;17.92;;;;;;;-145.79;88.66;77839.38;5270151;28;20060;-75
2023/10/08 10:44:38;;;;;;;19.70;17.65;;;;;;;-145.79;88.63;77835.13;5274597;28;20536;-74
2023/10/08 10:52:32;;;;;;;19.35;16.50;;;;;;;-145.79;88.96;77843.63;5271643;28;20110;-74
2023/10/08 10:58:28;;;;;;;20.80;17.17;;;;;;;-145.79;89.20;77830.91;5273600;28;20043;-74
2023/10/08 11:00:59;;;;;;;25.77;19.17;;;;;;;-145.79;89.87;77841.50;5270531;28;20096;-74
2023/10/08 11:03:34;;;;;;;23.30;15.75;;;;;;;-145.79;90.19;77841.50;5269518;28;20032;-75
2023/10/08 11:06:06;;;;;;;23.25;15.82;;;;;;;-145.79;90.66;77835.13;5266889;28;20044;-74
2023/10/08 11:08:37;;;;;;;27.63;17.92;;;;;;;-145.79;90.61;77837.25;5273823;28;20114;-73
2023/10/08 11:11:10;;;;;;;29.23;16.27;;;;;;;-145.79;91.08;77841.50;5269392;28;20021;-74
2023/10/08 11:13:41;;;;;;;29.33;16.15;;;;;;;-145.79;90.98;77841.50;5263230;28;20029;-73
2023/10/08 11:16:15;;;;;;;25.08;16.15;;;;;;;-145.79;90.54;77837.25;5270754;28;20032;-74
2023/10/08 11:18:49;;;;;;;31.27;16.58;;;;;;;-145.79;90.67;77847.84;5273741;28;20127;-74
2023/10/08 11:21:25;;;;;;;23.48;19.02;;;;;;;-145.79;90.62;77849.97;5271243;28;20021;-73
2023/10/08 11:23:58;;;;;;;32.92;22.45;;;;;;;-145.79;91.01;77856.34;5272171;28;20035;-74
2023/10/08 11:26:38;;;;;;;25.25;16.30;;;;;;;-145.79;91.50;77860.56;5270301;28;20472;-74
2023/10/08 11:29:18;;;;;;;23.38;14.85;;;;;;;-145.79;91.68;77877.53;5269131;28;20025;-73
2023/10/08 11:31:49;;;;;;;22.15;14.35;;;;;;;-145.79;92.03;77877.53;5273791;28;20025;-72
2023/10/08 11:34:24;;;;;;;25.90;14.90;;;;;;;-145.79;92.05;77881.78;5271233;28;20476;-74
2023/10/08 11:36:55;;;;;;;20.37;13.53;;;;;;;-145.79;92.10;77877.53;5270771;28;20025;-71
2023/10/08 11:39:31;;;;;;;21.77;14.38;;;;;;;-145.79;92.18;77879.66;5268730;28;20018;-71
2023/10/08 11:42:03;;;;;;;;;;;;;;;-145.79;91.67;77860.56;5270474;28;20032;-71
2023/10/08 11:44:35;;;;;;;22.25;14.55;;;;;;;-145.79;91.66;77871.19;5272986;28;20385;-72
2023/10/08 11:47:20;;;;;;;23.25;13.88;;;;;;;-145.79;92.10;77869.06;5275258;28;20025;-71
2023/10/08 11:50:08;;;;;;;22.42;14.45;;;;;;;-145.79;92.11;77873.31;5270400;28;20104;-72
2023/10/08 11:52:42;;;;;;;20.58;14.43;;;;;;;-145.79;92.05;77860.56;5273305;28;20055;-71
2023/10/08 11:55:18;;;;;;;18.40;14.73;;;;;;;-145.79;91.59;77860.56;5262665;28;20048;-68
2023/10/08 11:57:50;;;;;;;20.77;14.55;;;;;;;-145.79;90.86;77860.56;5261683;28;20412;-71
2023/10/08 12:00:24;;;;;;;21.13;13.77;;;;;;;-145.79;90.90;77849.97;5269381;28;20036;-72
2023/10/08 12:02:56;;;;;;;20.67;13.73;;;;;;;-145.79;90.68;77845.75;5269922;28;20025;-71
2023/10/08 12:05:28;;;;;;;19.35;13.48;;;;;;;-145.79;90.61;77830.91;5256878;28;20642;-72
2023/10/08 12:08:00;;;;;;;20.67;15.57;;;;;;;-145.79;90.30;77822.41;5270041;28;20468;-72
2023/10/08 12:10:34;;;;;;;14.60;10.57;;;;;;;-145.79;89.86;77809.69;5274436;28;20048;-71
2023/10/08 12:13:05;;;;;;;17.80;12.63;;;;;;;-145.79;89.68;77801.22;5279801;28;20013;-71
2023/10/08 12:15:41;;;;;;;27.50;15.05;;;;;;;-145.79;89.54;77818.19;5273936;28;20055;-71
2023/10/08 12:18:17;;;;;;;19.27;12.65;;;;;;;-145.79;89.60;77818.19;5265492;28;20479;-70
2023/10/08 12:20:49;;;;;;;16.73;14.02;;;;;;;-145.79;89.84;77818.19;5273001;28;20033;-69
2023/10/08 12:23:24;;;;;;;18.80;12.98;;;;;;;-145.79;90.05;77822.41;5277441;28;20086;-71
2023/10/08 12:25:56;;;;;;;18.13;13.23;;;;;;;-145.79;90.09;77824.53;5276399;28;20028;-70
2023/10/08 12:28:27;;;;;;;16.27;11.57;;;;;;;-145.79;89.76;77822.41;5269085;28;20020;-70
2023/10/08 12:31:00;;;;;;;18.10;12.18;;;;;;;-145.79;90.18;77830.91;5265591;28;20527;-70
2023/10/08 12:33:32;;;;;;;15.82;12.25;;;;;;;-145.79;90.63;77837.25;5276561;28;20031;-71
2023/10/08 12:36:10;;;;;;;18.42;12.02;;;;;;;-145.79;90.47;77822.41;5269237;28;20391;-70
2023/10/08 12:38:43;;;;;;;17.52;12.38;;;;;;;-145.79;90.24;77828.78;5271591;28;20380;-70
2023/10/08 12:41:16;;;;;;;18.50;12.80;;;;;;;-145.79;90.07;77828.78;5273242;28;20028;-70
2023/10/08 12:43:52;;;;;;;17.35;11.95;;;;;;;-145.79;90.21;77813.94;5277088;28;20464;-71
2023/10/08 12:46:24;;;;;;;17.27;13.30;;;;;;;-145.79;89.78;77799.09;5264005;28;20487;-75
2023/10/08 12:48:55;;;;;;;21.05;12.68;;;;;;;-145.79;89.45;77801.22;5266057;28;20100;-74
2023/10/08 12:51:31;;;;;;;20.02;14.43;;;;;;;-145.79;89.39;77799.09;5274903;28;20024;-74
2023/10/08 12:54:06;;;;;;;19.05;12.98;;;;;;;-145.79;88.86;77790.63;5271710;28;20129;-74
2023/10/08 12:56:54;;;;;;;15.95;12.60;;;;;;;-145.79;88.46;77777.91;5272827;28;20111;-75
2023/10/08 12:59:30;;;;;;;15.15;12.18;;;;;;;-145.79;88.26;77775.78;5276344;28;20024;-74
2023/10/08 13:02:07;;;;;;;;;;;;;;;-145.79;88.52;77729.16;5272426;28;20412;-74
2023/10/08 13:04:41;;;;;;;20.25;12.82;;;;;;;-145.79;87.49;77727.03;5266041;28;19916;-74
2023/10/08 13:07:14;;;;;;;17.08;12.15;;;;;;;-145.79;87.41;77716.44;5272569;28;20044;-74
2023/10/08 13:09:45;;;;;;;17.75;11.95;;;;;;;-145.79;87.09;77705.84;5273522;28;20491;-74
2023/10/08 13:12:16;;;;;;;18.75;13.23;;;;;;;-145.79;87.07;77691.00;5269760;28;20025;-73
2023/10/08 13:14:48;;;;;;;20.38;13.98;;;;;;;-145.79;86.86;77686.75;5275260;28;20066;-74
2023/10/08 13:17:19;;;;;;;21.65;15.52;;;;;;;-145.79;86.35;77678.28;5269172;28;20028;-74
2023/10/08 13:19:52;;;;;;;18.33;13.80;;;;;;;-145.79;86.48;77669.78;5272715;28;20048;-74
2023/10/08 13:22:24;;;;;;;20.38;14.63;;;;;;;-145.79;85.96;77657.06;5276656;28;20438;-74
2023/10/08 13:24:55;;;;;;;22.77;15.40;;;;;;;-145.79;85.74;77665.56;5267361;28;20052;-74
2023/10/08 13:27:27;;;;;;;22.98;16.33;;;;;;;-145.79;86.05;77661.31;5276636;28;20095;-74
2023/10/08 13:29:59;;;;;;;21.48;15.30;;;;;;;-145.79;86.11;77648.59;5273180;28;20036;-76
2023/10/08 13:32:31;;;;;;;18.00;15.75;;;;;;;-145.79;86.35;77648.59;5276258;28;20024;-74
2023/10/08 13:35:04;;;;;;;23.00;16.30;;;;;;;-145.79;86.31;77648.59;5275364;28;20035;-74
2023/10/08 13:37:36;;;;;;;22.23;16.95;;;;;;;-145.79;86.62;77652.84;5267780;28;20024;-75
2023/10/08 13:40:08;;;;;;;19.55;17.08;;;;;;;-145.79;86.59;77652.84;5275425;28;20392;-75
2023/10/08 13:42:39;;;;;;;20.92;15.68;;;;;;;-145.79;86.74;77648.59;5272198;28;20025;-74
2023/10/08 13:45:16;;;;;;;21.30;14.88;;;;;;;-145.79;86.98;77640.13;5268373;28;20384;-74
2023/10/08 13:47:47;;;;;;;22.20;16.38;;;;;;;-145.79;87.04;77640.13;5271100;28;20488;-74
2023/10/08 13:50:21;;;;;;;26.77;18.17;;;;;;;-145.79;87.23;77640.13;5272096;28;20067;-74
2023/10/08 13:52:53;;;;;;;24.60;17.88;;;;;;;-145.79;87.42;77640.13;5274860;28;20119;-74
2023/10/08 13:55:25;;;;;;;23.55;18.48;;;;;;;-145.79;87.53;77635.88;5268503;28;20099;-74
2023/10/08 13:57:57;;;;;;;23.30;17.55;;;;;;;-145.79;87.78;77623.16;5270860;28;20099;-74
2023/10/08 14:00:36;;;;;;;24.77;17.00;;;;;;;-145.79;87.31;77625.28;5272000;28;20029;-74
2023/10/08 14:03:09;;;;;;;20.75;17.02;;;;;;;-145.79;87.28;77614.69;5263926;28;20049;-74
2023/10/08 14:05:40;;;;;;;26.23;17.58;;;;;;;-145.79;87.71;77614.69;5269730;28;20029;-74
2023/10/08 14:08:15;;;;;;;26.83;18.42;;;;;;;-145.79;87.59;77610.44;5275393;28;20082;-74
2023/10/08 14:10:48;;;;;;;27.58;19.10;;;;;;;-145.79;87.77;77612.56;5272726;28;20024;-74
2023/10/08 14:13:19;;;;;;;21.92;18.80;;;;;;;-145.79;87.98;77601.97;5270807;28;20053;-74
2023/10/08 14:15:55;;;;;;;22.58;19.42;;;;;;;-145.79;87.85;77604.09;5273065;28;20064;-74
2023/10/08 14:18:28;;;;;;;29.80;21.35;;;;;;;-145.79;88.35;77610.44;5275565;28;20391;-77
2023/10/08 14:21:01;;;;;;;24.05;18.67;;;;;;;-145.79;88.20;77601.97;5263409;28;20035;-75
2023/10/08 14:23:39;;;;;;;22.77;18.33;;;;;;;-145.79;88.51;77614.69;5271265;28;20040;-74
2023/10/08 14:26:11;;;;;;;22.17;17.95;;;;;;;-145.79;88.39;77618.91;5273109;28;20027;-73
2023/10/08 14:28:51;;;;;;;29.38;19.13;;;;;;;-145.79;88.50;77614.69;5274237;28;20032;-74
2023/10/08 14:31:22;;;;;;;26.52;17.98;;;;;;;-145.79;88.52;77612.56;5270450;28;20035;-74
2023/10/08 14:34:05;;;;;;;25.38;18.33;;;;;;;-145.79;88.40;77610.44;5269855;28;20021;-74
2023/10/08 14:45:10;;;;;;;24.90;17.70;;;;;;;-145.79;87.80;77576.53;5268668;28;20033;-74
2023/10/08 14:47:42;;;;;;;21.70;15.98;;;;;;;-145.79;87.25;77565.94;5261621;28;20032;-74
2023/10/08 14:50:16;;;;;;;26.25;17.70;;;;;;;-145.79;87.19;77572.28;5270383;28;20036;-74
2023/10/08 14:52:47;;;;;;;24.35;17.45;;;;;;;-145.79;87.36;77565.94;5272968;28;20475;-75
2023/10/08 14:55:21;;;;;;;19.77;16.63;;;;;;;-145.79;87.75;77572.28;5266220;28;20036;-75
2023/10/08 14:57:52;;;;;;;21.77;16.08;;;;;;;-145.79;86.71;77563.81;5274522;28;20548;-75
2023/10/08 15:00:27;;;;;;;23.27;16.88;;;;;;;-145.79;87.20;77565.94;5262746;28;20025;-74
2023/10/08 15:03:02;;;;;;;22.30;15.75;;;;;;;-145.79;86.84;77555.31;5262203;28;20464;-74
2023/10/08 15:05:36;;;;;;;;;;;;;;;-145.79;86.70;77529.88;5271592;28;20037;-74
2023/10/08 15:08:10;;;;;;;22.77;17.05;;;;;;;-145.79;86.46;77534.13;5265802;28;19920;-74
2023/10/08 15:10:41;;;;;;;24.25;18.98;;;;;;;-145.79;86.49;77529.88;5263729;28;20029;-75
2023/10/08 15:13:13;;;;;;;27.17;19.02;;;;;;;-145.79;86.06;77525.66;5274257;28;20050;-74
2023/10/08 15:15:44;;;;;;;22.35;17.58;;;;;;;-145.79;86.10;77519.28;5272725;28;20029;-74
2023/10/08 15:18:18;;;;;;;23.40;16.25;;;;;;;-145.79;85.43;77517.16;5267659;28;20108;-75
2023/10/08 15:20:49;;;;;;;24.45;18.27;;;;;;;-145.79;85.89;77529.88;5268203;28;20039;-74
2023/10/08 15:23:25;;;;;;;20.63;17.80;;;;;;;-145.79;86.10;77532.00;5273216;28;20491;-74
2023/10/08 15:25:56;;;;;;;21.55;18.90;;;;;;;-145.79;86.27;77521.41;5273136;28;20035;-74
2023/10/08 15:28:28;;;;;;;21.90;15.88;;;;;;;-145.79;86.11;77521.41;5269533;28;20104;-74
2023/10/08 15:30:59;;;;;;;25.13;17.52;;;;;;;-145.79;86.51;77527.78;5269916;28;20425;-75
2023/10/08 15:33:31;;;;;;;26.20;17.65;;;;;;;-145.79;86.57;77529.88;5269592;28;20035;-75
2023/10/08 15:36:02;;;;;;;27.40;17.42;;;;;;;-145.79;87.02;77538.38;5262854;28;20400;-73
2023/10/08 15:38:33;;;;;;;22.33;15.82;;;;;;;-145.79;87.44;77542.59;5273330;28;20028;-72
2023/10/08 15:41:05;;;;;;;25.00;17.15;;;;;;;-145.79;87.80;77546.84;5273813;28;20074;-74
2023/10/08 15:43:36;;;;;;;21.58;16.70;;;;;;;-145.79;88.00;77542.59;5270121;28;20589;-74
2023/10/08 15:46:07;;;;;;;23.52;17.48;;;;;;;-145.79;88.21;77553.22;5270762;28;20025;-73
2023/10/08 15:48:39;;;;;;;27.40;19.65;;;;;;;-145.79;88.63;77551.09;5277906;28;20020;-75
2023/10/08 15:51:11;;;;;;;23.13;18.10;;;;;;;-145.79;88.84;77559.56;5277665;28;20024;-75
2023/10/08 15:53:42;;;;;;;27.25;16.75;;;;;;;-145.79;88.92;77557.44;5258929;28;20055;-75
2023/10/08 15:56:14;;;;;;;23.58;17.40;;;;;;;-145.79;88.93;77563.81;5277997;28;20027;-75
2023/10/08 15:58:45;;;;;;;28.13;17.85;;;;;;;-145.79;89.47;77565.94;5273910;28;20032;-74
2023/10/08 16:01:16;;;;;;;21.40;16.17;;;;;;;-145.79;89.32;77563.81;5273575;28;20048;-74
2023/10/08 16:03:49;;;;;;;24.85;16.35;;;;;;;-145.79;89.16;77559.56;5274800;28;20028;-74
2023/10/08 16:06:20;;;;;;;23.33;17.55;;;;;;;-145.79;89.76;77568.03;5277118;28;20020;-74
2023/10/08 16:08:52;;;;;;;23.92;18.38;;;;;;;-145.79;90.11;77576.53;5274769;28;20044;-74
2023/10/08 16:11:23;;;;;;;27.17;21.05;;;;;;;-145.79;90.01;77574.41;5272091;28;20025;-75
2023/10/08 16:13:54;;;;;;;29.48;20.58;;;;;;;-145.79;90.44;77568.03;5274453;28;20043;-73
2023/10/08 16:16:26;;;;;;;29.88;21.60;;;;;;;-145.79;90.52;77576.53;5273476;28;20515;-69
2023/10/08 16:18:57;;;;;;;30.45;20.83;;;;;;;-145.79;90.85;77587.13;5273916;28;20037;-70
2023/10/08 16:21:28;;;;;;;28.50;20.33;;;;;;;-145.79;90.72;77589.25;5277267;28;20044;-70
2023/10/08 16:24:00;;;;;;;26.77;20.13;;;;;;;-145.79;91.19;77593.47;5274461;28;20033;-70
2023/10/08 16:26:32;;;;;;;25.30;19.73;;;;;;;-145.79;91.18;77589.25;5272388;28;20029;-72
2023/10/08 16:29:05;;;;;;;24.60;18.10;;;;;;;-145.79;91.47;77595.59;5272430;28;20056;-70
2023/10/08 16:31:43;;;;;;;25.23;18.50;;;;;;;-145.79;91.84;77591.38;5277558;28;20037;-74
2023/10/08 16:34:18;;;;;;;22.52;17.33;;;;;;;-145.79;92.07;77597.72;5264423;28;20029;-74
2023/10/08 16:36:49;;;;;;;21.98;18.08;;;;;;;-145.79;92.40;77610.44;5274436;28;20476;-75
2023/10/08 16:39:24;;;;;;;21.33;16.60;;;;;;;-145.79;92.61;77616.81;5275458;28;20032;-74
2023/10/08 16:41:57;;;;;;;20.47;17.30;;;;;;;-145.79;92.87;77616.81;5276414;28;20434;-74
2023/10/08 16:44:28;;;;;;;25.95;17.85;;;;;;;-145.79;92.81;77618.91;5266155;28;20033;-74
2023/10/08 16:47:00;;;;;;;21.13;16.67;;;;;;;-145.79;93.04;77623.16;5276225;28;20024;-75
2023/10/08 16:49:31;;;;;;;23.13;16.80;;;;;;;-145.79;93.34;77631.63;5274557;28;20506;-73
2023/10/08 16:52:03;;;;;;;25.00;17.80;;;;;;;-145.79;93.24;77629.53;5270359;28;20059;-75
2023/10/08 16:54:35;;;;;;;27.50;20.15;;;;;;;-145.79;93.57;77644.34;5271894;28;20104;-74
